Date,TemperatureHighF,TemperatureAvgF,TemperatureLowF,DewpointHighF,DewpointAvgF,DewpointLowF,HumidityHigh,HumidityAvg,HumidityLow,PressureMaxIn,PressureMinIn,WindSpeedMaxMPH,WindSpeedAvgMPH,GustSpeedMaxMPH,PrecipitationSumIn
2013-1-1,72.6,72.6,72.6,50.1,50.1,50.1,45,45,45,29.84,29.84,16,16,0,0.63
2013-1-2,72.7,52.1,33.9,50.1,32.3,16.5,59,47,45,30.62,29.84,16,10,0,5.79
2013-1-3,37.3,37.3,37.3,18.9,18.9,18.9,47,47,47,30.48,30.48,6,6,0,5.79
2013-1-4,54.9,43.7,37.3,24.4,18.4,12.9,49,37,22,30.75,30.48,10,3,0,5.04
2013-1-5,48.7,48.7,48.7,17.9,17.9,17.9,29,29,29,30.61,30.61,1,1,0,5.04
2013-1-6,48.7,48.7,48.7,17.9,17.9,17.9,29,29,29,30.61,30.61,1,1,0,5.04
2013-1-7,48.7,48.7,48.7,17.9,17.9,17.9,29,29,29,30.61,30.61,1,1,0,5.04
2013-1-9,57.1,56.7,48.7,55.6,54.6,17.9,95,93,29,30.61,30.23,13,4,0,0.24
2013-1-10,56.8,56.8,56.8,54.8,54.8,54.8,93,93,93,30.23,30.23,4,4,0,0.24
2013-1-11,56.8,56.8,56.8,54.8,54.8,54.8,93,93,93,30.23,30.23,4,4,0,0.24
2013-1-12,56.8,56.8,56.8,54.8,54.8,54.8,93,93,93,30.23,30.23,4,4,0,0.24
2013-1-13,56.8,56.8,56.8,54.8,54.8,54.8,93,93,93,30.23,30.23,4,4,0,0.24
2013-1-14,56.8,40.7,30.9,54.8,26.7,9.4,93,60,40,30.58,30.23,10,6,0,0.04
2013-1-15,30.9,30.9,30.9,9.5,9.5,9.5,40,40,40,30.57,30.57,8,8,0,0.00
2013-1-16,30.9,30.9,30.9,9.5,9.5,9.5,40,40,40,30.57,30.57,8,8,0,0.00
2013-1-17,30.9,30.9,30.9,9.5,9.5,9.5,40,40,40,30.57,30.57,8,8,0,0.00
2013-1-18,30.9,30.9,30.9,9.5,9.5,9.5,40,40,40,30.57,30.57,8,8,0,0.00
2013-1-19,30.9,30.9,30.9,9.5,9.5,9.5,40,40,40,30.57,30.57,8,8,0,0.00
2013-1-20,30.9,30.9,30.9,9.5,9.5,9.5,40,40,40,30.57,30.57,8,8,0,0.00
2013-1-21,30.9,30.9,30.9,9.5,9.5,9.5,40,40,40,30.57,30.57,8,8,0,0.00
2013-1-22,30.9,30.9,30.9,9.5,9.5,9.5,40,40,40,30.57,30.57,8,8,0,0.00